sensor_id;sensor_type;location;lat;lon;timestamp;P1;durP1;ratioP1;P2;durP2;ratioP2
58152;SDS011;43967;51.634;5.566;2022-11-27T00:00:13;19.30;;;9.63;;
58152;SDS011;43967;51.634;5.566;2022-11-27T00:05:15;22.58;;;9.40;;
58152;SDS011;43967;51.634;5.566;2022-11-27T00:10:16;24.90;;;8.40;;
58152;SDS011;43967;51.634;5.566;2022-11-27T00:15:17;28.95;;;10.23;;
58152;SDS011;43967;51.634;5.566;2022-11-27T00:20:18;25.30;;;9.95;;
58152;SDS011;43967;51.634;5.566;2022-11-27T00:25:19;23.87;;;9.83;;
58152;SDS011;43967;51.634;5.566;2022-11-27T00:30:20;21.83;;;9.40;;
58152;SDS011;43967;51.634;5.566;2022-11-27T00:35:21;24.45;;;9.45;;
58152;SDS011;43967;51.634;5.566;2022-11-27T00:40:22;24.52;;;8.68;;
58152;SDS011;43967;51.634;5.566;2022-11-27T00:45:23;22.30;;;8.57;;
58152;SDS011;43967;51.634;5.566;2022-11-27T00:50:25;20.33;;;8.20;;
58152;SDS011;43967;51.634;5.566;2022-11-27T00:55:26;18.52;;;7.60;;
58152;SDS011;43967;51.634;5.566;2022-11-27T01:00:27;17.77;;;6.90;;
58152;SDS011;43967;51.634;5.566;2022-11-27T01:05:28;17.17;;;7.13;;
58152;SDS011;43967;51.634;5.566;2022-11-27T01:10:29;17.80;;;6.95;;
58152;SDS011;43967;51.634;5.566;2022-11-27T01:15:30;16.57;;;6.47;;
58152;SDS011;43967;51.634;5.566;2022-11-27T01:20:31;17.67;;;6.60;;
58152;SDS011;43967;51.634;5.566;2022-11-27T01:25:33;17.45;;;7.13;;
58152;SDS011;43967;51.634;5.566;2022-11-27T01:30:36;15.23;;;6.60;;
58152;SDS011;43967;51.634;5.566;2022-11-27T01:35:37;16.33;;;6.17;;
58152;SDS011;43967;51.634;5.566;2022-11-27T01:40:38;16.10;;;7.00;;
58152;SDS011;43967;51.634;5.566;2022-11-27T01:45:40;16.88;;;6.88;;
58152;SDS011;43967;51.634;5.566;2022-11-27T01:50:41;17.50;;;5.90;;
58152;SDS011;43967;51.634;5.566;2022-11-27T01:55:47;15.15;;;6.00;;
58152;SDS011;43967;51.634;5.566;2022-11-27T02:00:53;16.33;;;5.82;;
58152;SDS011;43967;51.634;5.566;2022-11-27T02:05:54;16.83;;;6.27;;
58152;SDS011;43967;51.634;5.566;2022-11-27T02:16:09;14.32;;;5.47;;
58152;SDS011;43967;51.634;5.566;2022-11-27T02:31:39;14.00;;;5.68;;
58152;SDS011;43967;51.634;5.566;2022-11-27T02:37:02;14.35;;;5.10;;
58152;SDS011;43967;51.634;5.566;2022-11-27T02:42:18;11.07;;;4.57;;
58152;SDS011;43967;51.634;5.566;2022-11-27T02:47:21;14.23;;;4.85;;
58152;SDS011;43967;51.634;5.566;2022-11-27T02:52:26;15.30;;;5.13;;
58152;SDS011;43967;51.634;5.566;2022-11-27T02:57:27;12.07;;;4.63;;
58152;SDS011;43967;51.634;5.566;2022-11-27T03:02:31;11.80;;;5.20;;
58152;SDS011;43967;51.634;5.566;2022-11-27T03:07:38;13.18;;;4.75;;
58152;SDS011;43967;51.634;5.566;2022-11-27T03:12:44;11.80;;;4.72;;
58152;SDS011;43967;51.634;5.566;2022-11-27T03:17:54;11.53;;;4.20;;
58152;SDS011;43967;51.634;5.566;2022-11-27T03:23:16;11.07;;;4.20;;
58152;SDS011;43967;51.634;5.566;2022-11-27T03:28:17;10.55;;;4.20;;
58152;SDS011;43967;51.634;5.566;2022-11-27T03:33:18;10.53;;;4.17;;
58152;SDS011;43967;51.634;5.566;2022-11-27T03:38:19;14.85;;;4.55;;
58152;SDS011;43967;51.634;5.566;2022-11-27T03:43:22;9.55;;;3.92;;
58152;SDS011;43967;51.634;5.566;2022-11-27T03:48:30;11.93;;;3.90;;
58152;SDS011;43967;51.634;5.566;2022-11-27T03:58:57;10.48;;;4.00;;
58152;SDS011;43967;51.634;5.566;2022-11-27T04:04:09;9.98;;;3.95;;
58152;SDS011;43967;51.634;5.566;2022-11-27T04:09:10;10.53;;;3.83;;
58152;SDS011;43967;51.634;5.566;2022-11-27T04:14:12;10.88;;;4.10;;
58152;SDS011;43967;51.634;5.566;2022-11-27T04:19:13;7.68;;;3.08;;
58152;SDS011;43967;51.634;5.566;2022-11-27T04:24:15;10.50;;;3.87;;
58152;SDS011;43967;51.634;5.566;2022-11-27T04:29:16;10.18;;;3.60;;
58152;SDS011;43967;51.634;5.566;2022-11-27T04:34:17;9.05;;;3.58;;
58152;SDS011;43967;51.634;5.566;2022-11-27T04:39:19;11.10;;;3.33;;
58152;SDS011;43967;51.634;5.566;2022-11-27T04:44:20;9.83;;;3.30;;
58152;SDS011;43967;51.634;5.566;2022-11-27T04:49:21;9.23;;;3.13;;
58152;SDS011;43967;51.634;5.566;2022-11-27T04:54:22;9.73;;;3.53;;
58152;SDS011;43967;51.634;5.566;2022-11-27T04:59:23;9.60;;;3.37;;
58152;SDS011;43967;51.634;5.566;2022-11-27T05:04:24;11.80;;;3.55;;
58152;SDS011;43967;51.634;5.566;2022-11-27T05:09:26;8.75;;;3.40;;
58152;SDS011;43967;51.634;5.566;2022-11-27T05:14:27;9.57;;;3.23;;
58152;SDS011;43967;51.634;5.566;2022-11-27T05:19:28;8.25;;;2.83;;
58152;SDS011;43967;51.634;5.566;2022-11-27T05:24:30;7.40;;;3.08;;
58152;SDS011;43967;51.634;5.566;2022-11-27T05:29:31;8.93;;;3.10;;
58152;SDS011;43967;51.634;5.566;2022-11-27T05:34:32;9.63;;;3.00;;
58152;SDS011;43967;51.634;5.566;2022-11-27T05:39:33;9.88;;;2.78;;
58152;SDS011;43967;51.634;5.566;2022-11-27T05:44:34;8.13;;;2.85;;
58152;SDS011;43967;51.634;5.566;2022-11-27T05:49:36;7.73;;;3.07;;
58152;SDS011;43967;51.634;5.566;2022-11-27T05:54:37;9.00;;;3.35;;
58152;SDS011;43967;51.634;5.566;2022-11-27T05:59:38;8.35;;;2.88;;
58152;SDS011;43967;51.634;5.566;2022-11-27T06:04:39;8.67;;;3.00;;
58152;SDS011;43967;51.634;5.566;2022-11-27T06:09:40;7.38;;;2.83;;
58152;SDS011;43967;51.634;5.566;2022-11-27T06:14:41;8.18;;;2.90;;
58152;SDS011;43967;51.634;5.566;2022-11-27T06:19:42;6.80;;;2.33;;
58152;SDS011;43967;51.634;5.566;2022-11-27T06:24:43;7.67;;;2.53;;
58152;SDS011;43967;51.634;5.566;2022-11-27T06:29:44;7.97;;;2.60;;
58152;SDS011;43967;51.634;5.566;2022-11-27T06:34:45;8.10;;;2.97;;
58152;SDS011;43967;51.634;5.566;2022-11-27T06:39:47;7.60;;;2.23;;
58152;SDS011;43967;51.634;5.566;2022-11-27T06:44:48;7.80;;;2.50;;
58152;SDS011;43967;51.634;5.566;2022-11-27T06:49:49;9.25;;;2.30;;
58152;SDS011;43967;51.634;5.566;2022-11-27T06:54:50;8.50;;;2.70;;
58152;SDS011;43967;51.634;5.566;2022-11-27T06:59:51;7.10;;;2.40;;
58152;SDS011;43967;51.634;5.566;2022-11-27T07:04:52;7.95;;;2.30;;
58152;SDS011;43967;51.634;5.566;2022-11-27T07:09:54;7.80;;;2.80;;
58152;SDS011;43967;51.634;5.566;2022-11-27T07:14:55;7.73;;;2.37;;
58152;SDS011;43967;51.634;5.566;2022-11-27T07:19:56;8.02;;;2.45;;
58152;SDS011;43967;51.634;5.566;2022-11-27T07:24:57;7.25;;;2.38;;
58152;SDS011;43967;51.634;5.566;2022-11-27T07:29:58;7.33;;;2.10;;
58152;SDS011;43967;51.634;5.566;2022-11-27T07:34:59;8.75;;;2.83;;
58152;SDS011;43967;51.634;5.566;2022-11-27T07:40:00;7.32;;;2.35;;
58152;SDS011;43967;51.634;5.566;2022-11-27T07:45:01;7.47;;;2.60;;
58152;SDS011;43967;51.634;5.566;2022-11-27T07:50:02;7.22;;;2.30;;
58152;SDS011;43967;51.634;5.566;2022-11-27T07:55:04;6.40;;;2.28;;
58152;SDS011;43967;51.634;5.566;2022-11-27T08:00:05;7.40;;;2.60;;
58152;SDS011;43967;51.634;5.566;2022-11-27T08:05:07;7.03;;;2.30;;
58152;SDS011;43967;51.634;5.566;2022-11-27T08:10:09;7.97;;;2.38;;
58152;SDS011;43967;51.634;5.566;2022-11-27T08:15:10;7.32;;;2.30;;
58152;SDS011;43967;51.634;5.566;2022-11-27T08:20:12;7.37;;;2.00;;
58152;SDS011;43967;51.634;5.566;2022-11-27T08:25:13;6.88;;;2.10;;
58152;SDS011;43967;51.634;5.566;2022-11-27T08:30:14;6.85;;;2.53;;
58152;SDS011;43967;51.634;5.566;2022-11-27T08:35:15;6.83;;;1.97;;
58152;SDS011;43967;51.634;5.566;2022-11-27T08:40:17;5.97;;;1.80;;
58152;SDS011;43967;51.634;5.566;2022-11-27T08:45:18;6.75;;;2.10;;
58152;SDS011;43967;51.634;5.566;2022-11-27T08:50:19;12.87;;;2.70;;
58152;SDS011;43967;51.634;5.566;2022-11-27T08:55:20;7.73;;;2.60;;
58152;SDS011;43967;51.634;5.566;2022-11-27T09:00:21;8.35;;;2.22;;
58152;SDS011;43967;51.634;5.566;2022-11-27T09:05:22;6.80;;;2.10;;
58152;SDS011;43967;51.634;5.566;2022-11-27T09:10:23;8.17;;;2.20;;
58152;SDS011;43967;51.634;5.566;2022-11-27T09:15:24;7.63;;;2.60;;
58152;SDS011;43967;51.634;5.566;2022-11-27T09:20:25;7.78;;;2.17;;
58152;SDS011;43967;51.634;5.566;2022-11-27T09:25:27;8.07;;;2.50;;
58152;SDS011;43967;51.634;5.566;2022-11-27T09:30:28;12.18;;;2.65;;
58152;SDS011;43967;51.634;5.566;2022-11-27T09:35:29;9.10;;;3.17;;
58152;SDS011;43967;51.634;5.566;2022-11-27T09:40:30;10.47;;;3.07;;
58152;SDS011;43967;51.634;5.566;2022-11-27T09:45:31;8.80;;;2.87;;
58152;SDS011;43967;51.634;5.566;2022-11-27T09:50:34;7.32;;;2.35;;
58152;SDS011;43967;51.634;5.566;2022-11-27T09:55:41;7.85;;;2.30;;
58152;SDS011;43967;51.634;5.566;2022-11-27T10:00:45;10.87;;;2.87;;
58152;SDS011;43967;51.634;5.566;2022-11-27T10:06:21;6.65;;;2.45;;
58152;SDS011;43967;51.634;5.566;2022-11-27T10:11:40;9.35;;;2.17;;
58152;SDS011;43967;51.634;5.566;2022-11-27T10:17:10;10.03;;;2.47;;
58152;SDS011;43967;51.634;5.566;2022-11-27T10:22:19;8.00;;;2.20;;
58152;SDS011;43967;51.634;5.566;2022-11-27T10:32:53;9.07;;;2.57;;
58152;SDS011;43967;51.634;5.566;2022-11-27T10:38:08;6.93;;;2.57;;
58152;SDS011;43967;51.634;5.566;2022-11-27T10:48:17;8.23;;;2.90;;
58152;SDS011;43967;51.634;5.566;2022-11-27T10:53:29;7.17;;;2.30;;
58152;SDS011;43967;51.634;5.566;2022-11-27T11:04:06;7.88;;;2.00;;
58152;SDS011;43967;51.634;5.566;2022-11-27T11:09:15;8.47;;;2.93;;
58152;SDS011;43967;51.634;5.566;2022-11-27T11:14:30;6.85;;;2.40;;
58152;SDS011;43967;51.634;5.566;2022-11-27T11:19:32;8.52;;;2.63;;
58152;SDS011;43967;51.634;5.566;2022-11-27T11:24:34;9.73;;;2.93;;
58152;SDS011;43967;51.634;5.566;2022-11-27T11:29:39;8.93;;;3.17;;
58152;SDS011;43967;51.634;5.566;2022-11-27T11:34:47;10.05;;;2.88;;
58152;SDS011;43967;51.634;5.566;2022-11-27T11:39:55;8.70;;;2.65;;
58152;SDS011;43967;51.634;5.566;2022-11-27T11:45:18;9.47;;;3.13;;
58152;SDS011;43967;51.634;5.566;2022-11-27T11:55:42;12.77;;;3.00;;
58152;SDS011;43967;51.634;5.566;2022-11-27T12:06:23;10.70;;;3.20;;
58152;SDS011;43967;51.634;5.566;2022-11-27T12:12:00;6.55;;;2.15;;
58152;SDS011;43967;51.634;5.566;2022-11-27T12:39:10;10.63;;;2.77;;
58152;SDS011;43967;51.634;5.566;2022-11-27T12:49:49;16.92;;;4.70;;
58152;SDS011;43967;51.634;5.566;2022-11-27T12:54:59;10.90;;;3.60;;
58152;SDS011;43967;51.634;5.566;2022-11-27T13:00:05;10.25;;;3.20;;
58152;SDS011;43967;51.634;5.566;2022-11-27T13:05:16;12.20;;;3.85;;
58152;SDS011;43967;51.634;5.566;2022-11-27T13:10:31;9.70;;;3.20;;
58152;SDS011;43967;51.634;5.566;2022-11-27T13:21:11;15.02;;;5.47;;
58152;SDS011;43967;51.634;5.566;2022-11-27T13:26:20;12.73;;;5.15;;
58152;SDS011;43967;51.634;5.566;2022-11-27T13:31:30;14.50;;;4.20;;
58152;SDS011;43967;51.634;5.566;2022-11-27T13:36:43;11.18;;;4.55;;
58152;SDS011;43967;51.634;5.566;2022-11-27T13:41:46;13.57;;;4.50;;
58152;SDS011;43967;51.634;5.566;2022-11-27T13:46:48;11.77;;;4.40;;
58152;SDS011;43967;51.634;5.566;2022-11-27T13:52:02;10.85;;;4.10;;
58152;SDS011;43967;51.634;5.566;2022-11-27T13:57:10;13.90;;;4.45;;
58152;SDS011;43967;51.634;5.566;2022-11-27T14:02:12;11.13;;;4.30;;
58152;SDS011;43967;51.634;5.566;2022-11-27T14:07:13;11.83;;;4.47;;
58152;SDS011;43967;51.634;5.566;2022-11-27T14:17:42;11.63;;;3.70;;
58152;SDS011;43967;51.634;5.566;2022-11-27T14:22:57;10.13;;;3.73;;
58152;SDS011;43967;51.634;5.566;2022-11-27T14:28:15;11.80;;;3.60;;
58152;SDS011;43967;51.634;5.566;2022-11-27T14:33:23;11.73;;;3.72;;
58152;SDS011;43967;51.634;5.566;2022-11-27T14:38:31;11.37;;;3.77;;
58152;SDS011;43967;51.634;5.566;2022-11-27T14:43:33;11.43;;;3.35;;
58152;SDS011;43967;51.634;5.566;2022-11-27T14:48:45;11.82;;;3.70;;
58152;SDS011;43967;51.634;5.566;2022-11-27T14:53:48;10.30;;;3.43;;
58152;SDS011;43967;51.634;5.566;2022-11-27T14:58:52;10.53;;;3.13;;
58152;SDS011;43967;51.634;5.566;2022-11-27T15:03:55;9.68;;;3.65;;
58152;SDS011;43967;51.634;5.566;2022-11-27T15:08:56;11.35;;;3.42;;
58152;SDS011;43967;51.634;5.566;2022-11-27T15:13:58;11.10;;;3.80;;
58152;SDS011;43967;51.634;5.566;2022-11-27T15:19:02;9.35;;;3.08;;
58152;SDS011;43967;51.634;5.566;2022-11-27T15:24:04;8.57;;;3.45;;
58152;SDS011;43967;51.634;5.566;2022-11-27T15:34:29;10.57;;;3.08;;
58152;SDS011;43967;51.634;5.566;2022-11-27T15:44:56;10.33;;;3.37;;
58152;SDS011;43967;51.634;5.566;2022-11-27T15:49:57;8.40;;;3.63;;
58152;SDS011;43967;51.634;5.566;2022-11-27T15:54:59;10.68;;;3.55;;
58152;SDS011;43967;51.634;5.566;2022-11-27T16:00:00;9.65;;;3.05;;
58152;SDS011;43967;51.634;5.566;2022-11-27T16:05:02;8.40;;;2.83;;
58152;SDS011;43967;51.634;5.566;2022-11-27T16:10:04;8.02;;;3.20;;
58152;SDS011;43967;51.634;5.566;2022-11-27T16:15:06;9.23;;;3.05;;
58152;SDS011;43967;51.634;5.566;2022-11-27T16:20:07;8.27;;;3.20;;
58152;SDS011;43967;51.634;5.566;2022-11-27T16:25:09;8.85;;;2.72;;
58152;SDS011;43967;51.634;5.566;2022-11-27T16:30:10;9.52;;;3.35;;
58152;SDS011;43967;51.634;5.566;2022-11-27T16:35:12;7.87;;;2.67;;
58152;SDS011;43967;51.634;5.566;2022-11-27T16:40:13;7.97;;;2.90;;
58152;SDS011;43967;51.634;5.566;2022-11-27T16:45:14;8.32;;;2.75;;
58152;SDS011;43967;51.634;5.566;2022-11-27T16:50:15;12.77;;;2.80;;
58152;SDS011;43967;51.634;5.566;2022-11-27T16:55:16;8.20;;;2.63;;
58152;SDS011;43967;51.634;5.566;2022-11-27T17:00:17;9.27;;;2.75;;
58152;SDS011;43967;51.634;5.566;2022-11-27T17:05:18;7.13;;;2.47;;
58152;SDS011;43967;51.634;5.566;2022-11-27T17:10:19;8.90;;;2.50;;
58152;SDS011;43967;51.634;5.566;2022-11-27T17:15:21;7.63;;;2.72;;
58152;SDS011;43967;51.634;5.566;2022-11-27T17:20:22;7.32;;;2.50;;
58152;SDS011;43967;51.634;5.566;2022-11-27T17:25:23;6.87;;;2.37;;
58152;SDS011;43967;51.634;5.566;2022-11-27T17:30:24;7.90;;;2.47;;
58152;SDS011;43967;51.634;5.566;2022-11-27T17:35:25;7.38;;;2.30;;
58152;SDS011;43967;51.634;5.566;2022-11-27T17:40:26;6.80;;;2.25;;
58152;SDS011;43967;51.634;5.566;2022-11-27T17:45:27;6.83;;;2.53;;
58152;SDS011;43967;51.634;5.566;2022-11-27T17:50:28;8.48;;;2.45;;
58152;SDS011;43967;51.634;5.566;2022-11-27T17:55:32;7.30;;;2.35;;
58152;SDS011;43967;51.634;5.566;2022-11-27T18:00:34;8.17;;;2.70;;
58152;SDS011;43967;51.634;5.566;2022-11-27T18:05:36;6.70;;;2.22;;
58152;SDS011;43967;51.634;5.566;2022-11-27T18:10:38;6.53;;;2.28;;
58152;SDS011;43967;51.634;5.566;2022-11-27T18:15:39;6.97;;;2.47;;
58152;SDS011;43967;51.634;5.566;2022-11-27T18:20:40;7.43;;;2.53;;
58152;SDS011;43967;51.634;5.566;2022-11-27T18:25:41;7.35;;;2.30;;
58152;SDS011;43967;51.634;5.566;2022-11-27T18:30:42;6.72;;;2.22;;
58152;SDS011;43967;51.634;5.566;2022-11-27T18:35:43;6.73;;;2.37;;
58152;SDS011;43967;51.634;5.566;2022-11-27T18:40:44;6.43;;;2.40;;
58152;SDS011;43967;51.634;5.566;2022-11-27T18:45:45;7.57;;;2.10;;
58152;SDS011;43967;51.634;5.566;2022-11-27T18:50:47;6.43;;;2.13;;
58152;SDS011;43967;51.634;5.566;2022-11-27T18:55:48;6.50;;;2.17;;
58152;SDS011;43967;51.634;5.566;2022-11-27T19:00:49;6.25;;;2.25;;
58152;SDS011;43967;51.634;5.566;2022-11-27T19:05:50;6.60;;;2.30;;
58152;SDS011;43967;51.634;5.566;2022-11-27T19:10:51;6.83;;;2.40;;
58152;SDS011;43967;51.634;5.566;2022-11-27T19:15:52;7.50;;;2.65;;
58152;SDS011;43967;51.634;5.566;2022-11-27T19:20:53;6.40;;;2.40;;
58152;SDS011;43967;51.634;5.566;2022-11-27T19:25:54;6.43;;;1.80;;
58152;SDS011;43967;51.634;5.566;2022-11-27T19:30:55;7.30;;;2.38;;
58152;SDS011;43967;51.634;5.566;2022-11-27T19:36:00;7.00;;;1.90;;
58152;SDS011;43967;51.634;5.566;2022-11-27T19:41:03;6.07;;;2.20;;
58152;SDS011;43967;51.634;5.566;2022-11-27T19:51:39;6.18;;;2.40;;
58152;SDS011;43967;51.634;5.566;2022-11-27T19:56:40;6.03;;;2.40;;
58152;SDS011;43967;51.634;5.566;2022-11-27T20:01:42;6.40;;;2.10;;
58152;SDS011;43967;51.634;5.566;2022-11-27T20:06:43;9.00;;;3.53;;
58152;SDS011;43967;51.634;5.566;2022-11-27T20:11:44;7.00;;;2.78;;
58152;SDS011;43967;51.634;5.566;2022-11-27T20:16:45;7.50;;;2.70;;
58152;SDS011;43967;51.634;5.566;2022-11-27T20:21:46;7.03;;;2.33;;
58152;SDS011;43967;51.634;5.566;2022-11-27T20:26:47;6.85;;;2.30;;
58152;SDS011;43967;51.634;5.566;2022-11-27T20:31:48;10.23;;;2.60;;
58152;SDS011;43967;51.634;5.566;2022-11-27T20:36:49;12.45;;;2.40;;
58152;SDS011;43967;51.634;5.566;2022-11-27T20:41:54;10.23;;;2.75;;
58152;SDS011;43967;51.634;5.566;2022-11-27T20:46:55;10.43;;;2.80;;
58152;SDS011;43967;51.634;5.566;2022-11-27T20:51:56;10.43;;;2.70;;
58152;SDS011;43967;51.634;5.566;2022-11-27T21:07:19;7.10;;;2.60;;
58152;SDS011;43967;51.634;5.566;2022-11-27T21:12:20;9.40;;;2.80;;
58152;SDS011;43967;51.634;5.566;2022-11-27T21:17:21;10.10;;;2.60;;
58152;SDS011;43967;51.634;5.566;2022-11-27T21:22:22;20.40;;;2.73;;
58152;SDS011;43967;51.634;5.566;2022-11-27T21:27:23;9.50;;;2.40;;
58152;SDS011;43967;51.634;5.566;2022-11-27T21:32:24;6.95;;;1.98;;
58152;SDS011;43967;51.634;5.566;2022-11-27T21:37:25;9.43;;;2.60;;
58152;SDS011;43967;51.634;5.566;2022-11-27T21:42:26;8.23;;;2.77;;
58152;SDS011;43967;51.634;5.566;2022-11-27T21:47:27;11.13;;;2.58;;
58152;SDS011;43967;51.634;5.566;2022-11-27T21:52:28;11.82;;;2.42;;
58152;SDS011;43967;51.634;5.566;2022-11-27T21:57:29;10.17;;;2.63;;
58152;SDS011;43967;51.634;5.566;2022-11-27T22:02:30;9.93;;;2.70;;
58152;SDS011;43967;51.634;5.566;2022-11-27T22:07:33;16.55;;;3.08;;
58152;SDS011;43967;51.634;5.566;2022-11-27T22:12:34;11.73;;;2.80;;
58152;SDS011;43967;51.634;5.566;2022-11-27T22:17:35;9.93;;;2.45;;
58152;SDS011;43967;51.634;5.566;2022-11-27T22:22:36;8.52;;;2.30;;
58152;SDS011;43967;51.634;5.566;2022-11-27T22:27:37;10.90;;;2.20;;
58152;SDS011;43967;51.634;5.566;2022-11-27T22:32:38;7.13;;;2.37;;
58152;SDS011;43967;51.634;5.566;2022-11-27T22:37:39;8.38;;;2.30;;
58152;SDS011;43967;51.634;5.566;2022-11-27T22:42:40;7.00;;;2.17;;
58152;SDS011;43967;51.634;5.566;2022-11-27T22:47:41;8.10;;;2.33;;
58152;SDS011;43967;51.634;5.566;2022-11-27T22:52:42;9.57;;;2.15;;
58152;SDS011;43967;51.634;5.566;2022-11-27T22:57:44;7.78;;;2.60;;
58152;SDS011;43967;51.634;5.566;2022-11-27T23:02:46;8.30;;;2.43;;
58152;SDS011;43967;51.634;5.566;2022-11-27T23:07:47;7.50;;;2.20;;
58152;SDS011;43967;51.634;5.566;2022-11-27T23:12:48;7.03;;;2.67;;
58152;SDS011;43967;51.634;5.566;2022-11-27T23:17:49;6.93;;;2.73;;
58152;SDS011;43967;51.634;5.566;2022-11-27T23:22:50;7.00;;;2.40;;
58152;SDS011;43967;51.634;5.566;2022-11-27T23:27:51;7.00;;;2.20;;
58152;SDS011;43967;51.634;5.566;2022-11-27T23:32:52;6.93;;;2.50;;
58152;SDS011;43967;51.634;5.566;2022-11-27T23:37:53;7.57;;;2.43;;
58152;SDS011;43967;51.634;5.566;2022-11-27T23:42:54;7.38;;;2.30;;
58152;SDS011;43967;51.634;5.566;2022-11-27T23:47:55;9.07;;;2.28;;
58152;SDS011;43967;51.634;5.566;2022-11-27T23:52:56;9.53;;;2.97;;
58152;SDS011;43967;51.634;5.566;2022-11-27T23:57:57;8.05;;;2.58;;
